createdAt,value
2023-01-31T00:01:11.816Z,3.92
2023-01-31T00:03:40.033Z,3.95
2023-01-31T00:06:11.358Z,2.45
2023-01-31T00:08:38.574Z,2.78
2023-01-31T00:11:07.530Z,3.72
2023-01-31T00:13:35.075Z,3.13
2023-01-31T00:16:02.797Z,2.55
2023-01-31T00:18:30.101Z,2.95
2023-01-31T00:20:57.458Z,3.33
2023-01-31T00:23:24.854Z,3.58
2023-01-31T00:25:52.126Z,5.18
2023-01-31T00:28:19.345Z,2.67
2023-01-31T00:30:46.618Z,3.60
2023-01-31T00:33:13.852Z,2.72
2023-01-31T00:35:41.709Z,2.78
2023-01-31T00:38:08.946Z,3.90
2023-01-31T00:40:36.491Z,4.60
2023-01-31T00:43:04.384Z,2.70
2023-01-31T00:45:32.963Z,3.33
2023-01-31T00:48:00.190Z,4.55
2023-01-31T00:50:28.702Z,3.83
2023-01-31T00:52:55.928Z,2.55
2023-01-31T00:55:25.929Z,3.40
2023-01-31T00:57:53.183Z,4.68
2023-01-31T01:00:20.441Z,3.95
2023-01-31T01:02:47.790Z,2.45
2023-01-31T01:05:15.144Z,3.17
2023-01-31T01:07:42.433Z,3.75
2023-01-31T01:10:10.030Z,3.88
2023-01-31T01:12:37.289Z,3.47
2023-01-31T01:15:04.753Z,4.10
2023-01-31T01:17:32.670Z,3.90
2023-01-31T01:20:03.673Z,3.28
2023-01-31T01:22:32.165Z,3.30
2023-01-31T01:24:59.428Z,3.50
2023-01-31T01:27:27.374Z,5.07
2023-01-31T01:29:54.713Z,3.22
2023-01-31T01:34:52.875Z,4.90
2023-01-31T01:37:20.257Z,3.25
2023-01-31T01:39:48.553Z,4.30
2023-01-31T01:42:25.689Z,4.78
2023-01-31T01:44:54.919Z,3.45
2023-01-31T01:49:51.959Z,3.88
2023-01-31T01:52:19.276Z,4.22
2023-01-31T01:55:10.043Z,3.70
2023-01-31T01:57:40.335Z,4.63
2023-01-31T02:00:13.890Z,4.90
2023-01-31T02:02:45.031Z,4.63
2023-01-31T02:05:13.882Z,4.30
2023-01-31T02:07:43.164Z,3.95
2023-01-31T02:10:25.326Z,5.45
2023-01-31T02:12:52.669Z,5.13
2023-01-31T02:15:21.298Z,4.30
2023-01-31T02:17:48.891Z,4.57
2023-01-31T02:20:39.428Z,3.80
2023-01-31T02:23:16.845Z,4.55
2023-01-31T02:26:02.769Z,4.20
2023-01-31T02:28:55.247Z,4.20
2023-01-31T02:31:22.928Z,5.80
2023-01-31T02:33:55.090Z,5.32
2023-01-31T02:36:34.408Z,6.30
2023-01-31T02:41:40.337Z,5.93
2023-01-31T02:44:40.934Z,5.15
2023-01-31T02:47:16.639Z,5.88
2023-01-31T02:49:48.825Z,5.70
2023-01-31T02:52:18.796Z,6.65
2023-01-31T02:55:13.657Z,6.03
2023-01-31T02:57:41.665Z,6.30
2023-01-31T03:00:09.440Z,5.35
2023-01-31T03:02:36.780Z,6.68
2023-01-31T03:05:04.645Z,6.93
2023-01-31T03:07:34.175Z,7.43
2023-01-31T03:10:04.628Z,7.65
2023-01-31T03:12:36.872Z,7.32
2023-01-31T03:15:25.545Z,6.70
2023-01-31T03:18:07.745Z,6.13
2023-01-31T03:20:41.058Z,7.18
2023-01-31T03:23:12.137Z,9.10
2023-01-31T03:25:40.119Z,7.05
2023-01-31T03:28:12.422Z,5.60
2023-01-31T03:30:46.432Z,7.18
2023-01-31T03:33:16.271Z,8.93
2023-01-31T03:35:47.815Z,7.13
2023-01-31T03:38:17.833Z,7.38
2023-01-31T03:40:59.165Z,8.63
2023-01-31T03:43:29.448Z,6.78
2023-01-31T03:46:00.871Z,7.40
2023-01-31T03:48:33.279Z,6.38
2023-01-31T03:51:02.318Z,8.32
2023-01-31T03:53:33.581Z,7.18
2023-01-31T03:56:03.838Z,8.07
2023-01-31T03:58:33.551Z,6.70
2023-01-31T04:01:01.980Z,7.78
2023-01-31T04:03:33.434Z,8.20
2023-01-31T04:06:00.662Z,8.95
2023-01-31T04:08:28.325Z,8.75
2023-01-31T04:11:04.921Z,7.07
2023-01-31T04:13:32.276Z,10.18
2023-01-31T04:15:59.597Z,9.07
2023-01-31T04:18:26.861Z,8.68
2023-01-31T04:20:54.152Z,10.30
2023-01-31T04:23:21.391Z,9.32
2023-01-31T04:25:48.617Z,10.27
2023-01-31T04:28:16.010Z,8.77
2023-01-31T04:30:43.238Z,9.02
2023-01-31T04:33:10.585Z,8.82
2023-01-31T04:35:40.534Z,9.52
2023-01-31T04:38:07.765Z,10.60
2023-01-31T04:40:35.030Z,9.57
2023-01-31T04:43:02.392Z,9.98
2023-01-31T04:45:29.638Z,7.90
2023-01-31T04:47:56.864Z,10.07
2023-01-31T04:50:24.112Z,7.82
2023-01-31T04:52:51.823Z,8.77
2023-01-31T04:55:19.808Z,10.48
2023-01-31T04:57:47.270Z,10.07
2023-01-31T05:00:14.996Z,8.18
2023-01-31T05:02:42.251Z,10.82
2023-01-31T05:05:09.631Z,9.50
2023-01-31T05:07:37.612Z,6.18
2023-01-31T05:10:05.268Z,7.53
2023-01-31T05:12:32.738Z,6.20
2023-01-31T05:15:01.021Z,6.28
2023-01-31T05:17:30.005Z,5.90
2023-01-31T05:19:57.667Z,6.85
2023-01-31T05:22:25.314Z,8.07
2023-01-31T05:24:52.657Z,5.60
2023-01-31T05:27:20.276Z,5.97
2023-01-31T05:29:47.624Z,5.45
2023-01-31T05:32:15.098Z,6.03
2023-01-31T05:34:42.312Z,5.68
2023-01-31T05:37:09.555Z,6.70
2023-01-31T05:39:37.150Z,4.85
2023-01-31T05:42:04.446Z,6.53
2023-01-31T05:44:32.719Z,4.47
2023-01-31T05:47:01.371Z,6.72
2023-01-31T05:49:33.394Z,4.50
2023-01-31T05:52:01.243Z,4.93
2023-01-31T05:54:28.556Z,3.85
2023-01-31T05:56:55.834Z,5.22
2023-01-31T05:59:23.412Z,5.18
2023-01-31T06:01:50.800Z,4.85
2023-01-31T06:04:18.170Z,4.85
2023-01-31T06:06:45.457Z,6.25
2023-01-31T06:09:12.763Z,6.47
2023-01-31T06:11:40.151Z,6.45
2023-01-31T06:14:07.442Z,4.47
2023-01-31T06:16:34.720Z,5.95
2023-01-31T06:19:02.037Z,4.60
2023-01-31T06:21:29.513Z,5.82
2023-01-31T06:23:57.293Z,5.07
2023-01-31T06:26:24.745Z,5.35
2023-01-31T06:28:52.136Z,5.05
2023-01-31T06:31:19.467Z,4.65
2023-01-31T06:33:48.144Z,5.53
2023-01-31T06:36:18.949Z,4.28
2023-01-31T06:38:49.832Z,5.10
2023-01-31T06:41:17.082Z,5.35
2023-01-31T06:43:44.326Z,6.07
2023-01-31T06:46:11.606Z,4.40
2023-01-31T06:48:38.870Z,5.15
2023-01-31T06:51:06.385Z,4.45
2023-01-31T06:53:33.587Z,5.00
2023-01-31T06:56:00.841Z,4.70
2023-01-31T06:58:28.314Z,4.68
2023-01-31T07:00:55.612Z,5.40
2023-01-31T07:03:22.859Z,4.22
2023-01-31T07:05:50.171Z,3.80
2023-01-31T07:08:17.445Z,4.63
2023-01-31T07:10:44.673Z,3.95
2023-01-31T07:13:11.982Z,3.80
2023-01-31T07:15:39.451Z,4.68
2023-01-31T07:18:06.763Z,3.53
2023-01-31T07:20:34.170Z,4.65
2023-01-31T07:23:01.424Z,4.65
2023-01-31T07:25:30.246Z,6.35
2023-01-31T07:27:57.528Z,5.22
2023-01-31T07:30:24.840Z,6.70
2023-01-31T07:32:52.068Z,3.67
2023-01-31T07:35:19.766Z,4.25
2023-01-31T07:37:47.342Z,3.78
2023-01-31T07:40:15.681Z,4.70
2023-01-31T07:42:43.307Z,3.53
2023-01-31T07:45:23.246Z,3.63
2023-01-31T07:47:51.306Z,5.75
2023-01-31T07:50:18.647Z,3.97
2023-01-31T07:52:45.978Z,4.55
2023-01-31T07:55:13.195Z,3.30
2023-01-31T07:57:40.404Z,5.55
2023-01-31T08:00:28.162Z,3.45
2023-01-31T08:03:14.043Z,5.53
2023-01-31T08:05:41.482Z,4.60
2023-01-31T08:08:11.881Z,5.55
2023-01-31T08:10:39.230Z,4.38
2023-01-31T08:13:06.684Z,5.63
2023-01-31T08:15:34.603Z,5.18
2023-01-31T08:18:04.443Z,3.78
2023-01-31T08:20:33.708Z,3.30
2023-01-31T08:23:00.980Z,2.90
2023-01-31T08:25:32.232Z,3.70
2023-01-31T08:27:59.836Z,3.55
2023-01-31T08:30:27.518Z,2.75
2023-01-31T08:32:55.022Z,4.22
2023-01-31T08:35:22.668Z,3.83
2023-01-31T08:37:50.189Z,3.72
2023-01-31T08:40:17.559Z,5.68
2023-01-31T08:42:44.985Z,5.28
2023-01-31T08:45:12.429Z,4.20
2023-01-31T08:47:40.268Z,3.90
2023-01-31T08:50:13.135Z,4.13
2023-01-31T08:53:00.205Z,3.63
2023-01-31T08:55:27.655Z,3.38
2023-01-31T08:57:59.831Z,3.78
2023-01-31T09:00:27.833Z,3.50
2023-01-31T09:02:55.964Z,4.05
2023-01-31T09:05:23.891Z,4.38
2023-01-31T09:07:51.286Z,5.38
2023-01-31T09:10:19.169Z,3.65
2023-01-31T09:12:46.974Z,3.97
2023-01-31T09:15:14.667Z,4.70
2023-01-31T09:17:43.612Z,3.63
2023-01-31T09:20:11.210Z,2.90
2023-01-31T09:22:38.644Z,3.00
2023-01-31T09:25:06.295Z,4.25
2023-01-31T09:27:33.585Z,4.78
2023-01-31T09:30:00.996Z,3.70
2023-01-31T09:32:30.125Z,6.20
2023-01-31T09:34:57.443Z,4.32
2023-01-31T09:37:24.835Z,4.82
2023-01-31T09:39:52.259Z,4.70
2023-01-31T09:42:22.557Z,4.88
2023-01-31T09:44:57.143Z,4.78
2023-01-31T09:47:30.043Z,4.60
2023-01-31T09:50:17.594Z,6.35
2023-01-31T09:52:44.997Z,5.20
2023-01-31T09:55:16.869Z,4.20
2023-01-31T09:57:57.028Z,3.90
2023-01-31T10:00:33.974Z,3.63
2023-01-31T10:03:01.310Z,5.15
2023-01-31T10:05:50.009Z,4.85
2023-01-31T10:08:20.377Z,3.83
2023-01-31T10:10:47.872Z,5.25
2023-01-31T10:13:20.687Z,4.13
2023-01-31T10:15:58.379Z,4.50
2023-01-31T10:18:32.902Z,4.55
2023-01-31T10:21:19.008Z,4.43
2023-01-31T10:23:49.869Z,4.50
2023-01-31T10:26:20.410Z,5.30
2023-01-31T10:29:06.740Z,5.85
2023-01-31T10:31:53.066Z,5.28
2023-01-31T10:34:23.317Z,5.72
2023-01-31T10:36:52.007Z,4.82
2023-01-31T10:39:34.743Z,5.88
2023-01-31T10:42:04.843Z,3.75
2023-01-31T10:44:32.534Z,4.22
2023-01-31T10:47:00.193Z,4.90
2023-01-31T10:49:28.141Z,5.07
2023-01-31T10:52:12.284Z,5.32
2023-01-31T10:54:47.259Z,5.22
2023-01-31T10:57:14.806Z,4.32
2023-01-31T10:59:44.336Z,4.55
2023-01-31T11:02:20.474Z,4.57
2023-01-31T11:04:48.000Z,4.65
2023-01-31T11:07:15.426Z,4.15
2023-01-31T11:09:45.886Z,3.83
2023-01-31T11:12:17.283Z,4.57
2023-01-31T11:14:44.984Z,3.05
2023-01-31T11:17:21.907Z,4.75
2023-01-31T11:19:50.996Z,4.80
2023-01-31T11:22:23.714Z,6.13
2023-01-31T11:24:53.196Z,4.30
2023-01-31T11:27:28.405Z,4.65
2023-01-31T11:30:00.167Z,4.13
2023-01-31T11:32:32.260Z,4.85
2023-01-31T11:35:00.924Z,6.38
2023-01-31T11:37:33.307Z,4.88
2023-01-31T11:40:03.071Z,5.00
2023-01-31T11:42:30.451Z,4.40
2023-01-31T11:45:02.261Z,4.80
2023-01-31T11:47:29.543Z,5.05
2023-01-31T11:49:56.883Z,4.35
2023-01-31T11:52:29.780Z,4.97
2023-01-31T11:54:58.192Z,3.85
2023-01-31T11:57:27.543Z,5.70
2023-01-31T12:02:34.133Z,5.93
2023-01-31T12:05:05.477Z,5.95
2023-01-31T12:07:41.888Z,4.15
2023-01-31T12:10:27.837Z,4.68
2023-01-31T12:13:05.884Z,4.50
2023-01-31T12:16:13.530Z,6.75
2023-01-31T12:18:56.254Z,4.63
2023-01-31T12:21:23.474Z,4.70
2023-01-31T12:23:56.576Z,5.75
2023-01-31T12:26:31.946Z,4.47
2023-01-31T12:28:59.606Z,4.57
2023-01-31T12:31:36.077Z,4.80
2023-01-31T12:34:03.460Z,4.00
2023-01-31T12:36:45.716Z,5.07
2023-01-31T12:39:25.151Z,4.25
2023-01-31T12:42:11.111Z,4.85
2023-01-31T12:44:48.687Z,5.28
2023-01-31T12:47:34.839Z,4.43
2023-01-31T12:50:08.124Z,5.88
2023-01-31T12:52:38.446Z,4.00
2023-01-31T12:55:08.521Z,5.03
2023-01-31T12:57:48.192Z,4.47
2023-01-31T13:00:18.331Z,4.72
2023-01-31T13:02:57.885Z,3.10
2023-01-31T13:05:28.583Z,3.55
2023-01-31T13:08:01.896Z,5.55
2023-01-31T13:10:29.118Z,5.25
2023-01-31T13:12:57.941Z,4.00
2023-01-31T13:15:44.136Z,3.80
2023-01-31T13:18:12.118Z,3.97
2023-01-31T13:21:08.879Z,5.88
2023-01-31T13:23:44.154Z,4.18
2023-01-31T13:26:14.869Z,5.55
2023-01-31T13:28:51.132Z,3.83
2023-01-31T13:31:22.848Z,4.60
2023-01-31T13:33:57.921Z,5.00
2023-01-31T13:36:25.286Z,4.18
2023-01-31T13:38:52.691Z,4.53
2023-01-31T13:41:26.942Z,3.60
2023-01-31T13:43:54.309Z,5.03
2023-01-31T13:46:24.630Z,3.53
2023-01-31T13:48:56.277Z,6.18
2023-01-31T13:51:26.103Z,5.00
2023-01-31T13:53:57.291Z,4.97
2023-01-31T13:56:27.565Z,3.63
2023-01-31T13:58:55.606Z,3.72
2023-01-31T14:01:24.896Z,4.90
2023-01-31T14:04:18.628Z,5.82
2023-01-31T14:06:55.996Z,3.78
2023-01-31T14:09:30.735Z,4.85
2023-01-31T14:11:59.405Z,3.80
2023-01-31T14:14:37.570Z,5.03
2023-01-31T14:17:25.146Z,4.32
2023-01-31T14:19:52.543Z,6.13
2023-01-31T14:22:33.291Z,4.10
2023-01-31T14:25:05.983Z,5.13
2023-01-31T14:27:44.152Z,4.70
2023-01-31T14:30:23.332Z,4.15
2023-01-31T14:33:17.648Z,3.97
2023-01-31T14:35:50.745Z,4.07
2023-01-31T14:38:22.657Z,4.03
2023-01-31T14:41:08.917Z,4.20
2023-01-31T14:43:42.411Z,5.68
2023-01-31T14:46:18.508Z,3.50
2023-01-31T14:48:57.853Z,4.43
2023-01-31T14:51:38.204Z,5.28
2023-01-31T14:54:17.582Z,3.85
2023-01-31T14:56:44.837Z,4.22
2023-01-31T14:59:24.372Z,3.83
2023-01-31T15:01:51.818Z,5.70
2023-01-31T15:04:23.962Z,3.92
2023-01-31T15:06:53.293Z,3.47
2023-01-31T15:11:49.733Z,2.95
2023-01-31T15:14:33.404Z,3.95
2023-01-31T15:17:03.937Z,3.67
2023-01-31T15:19:35.176Z,3.85
2023-01-31T15:22:07.412Z,5.47
2023-01-31T15:24:39.446Z,5.80
2023-01-31T15:27:33.528Z,4.47
2023-01-31T15:30:28.983Z,2.92
2023-01-31T15:32:56.169Z,4.68
2023-01-31T15:35:26.349Z,3.55
2023-01-31T15:38:01.702Z,2.83
2023-01-31T15:40:29.266Z,3.72
2023-01-31T15:43:16.098Z,4.38
2023-01-31T15:45:43.668Z,3.80
2023-01-31T15:48:15.485Z,4.18
2023-01-31T15:50:50.400Z,3.60
2023-01-31T15:53:18.518Z,3.17
2023-01-31T15:55:47.281Z,3.88
2023-01-31T15:58:19.366Z,3.17
2023-01-31T16:00:50.014Z,4.72
2023-01-31T16:03:24.403Z,3.75
2023-01-31T16:05:53.177Z,4.25
2023-01-31T16:08:20.453Z,4.20
2023-01-31T16:10:48.724Z,3.63
2023-01-31T16:13:16.358Z,3.75
2023-01-31T16:15:44.156Z,4.40
2023-01-31T16:18:12.230Z,3.92
2023-01-31T16:20:39.507Z,3.63
2023-01-31T16:23:21.554Z,5.10
2023-01-31T16:25:52.873Z,4.60
2023-01-31T16:28:20.148Z,3.38
2023-01-31T16:30:47.592Z,4.00
2023-01-31T16:33:19.103Z,4.35
2023-01-31T16:35:46.559Z,5.65
2023-01-31T16:38:26.743Z,6.88
2023-01-31T16:40:55.303Z,5.38
2023-01-31T16:43:23.776Z,3.20
2023-01-31T16:46:00.909Z,5.37
2023-01-31T16:48:28.399Z,4.15
2023-01-31T16:50:57.258Z,4.95
2023-01-31T16:53:26.413Z,4.47
2023-01-31T16:56:12.390Z,5.97
2023-01-31T16:58:44.398Z,4.22
2023-01-31T17:01:13.058Z,5.82
2023-01-31T17:03:40.622Z,5.68
2023-01-31T17:06:08.320Z,7.15
2023-01-31T17:08:41.125Z,4.88
2023-01-31T17:11:11.921Z,7.30
2023-01-31T17:13:39.255Z,5.60
2023-01-31T17:16:24.155Z,5.03
2023-01-31T17:18:55.300Z,6.25
2023-01-31T17:21:28.360Z,6.88
2023-01-31T17:23:55.664Z,6.78
2023-01-31T17:26:24.126Z,6.72
2023-01-31T17:29:01.455Z,3.77
2023-01-31T17:31:31.195Z,7.40
2023-01-31T17:33:58.734Z,6.18
2023-01-31T17:36:26.049Z,5.32
2023-01-31T17:38:53.366Z,3.70
2023-01-31T17:41:23.135Z,5.90
2023-01-31T17:43:50.389Z,4.10
2023-01-31T17:46:18.608Z,4.97
2023-01-31T17:48:45.852Z,4.50
2023-01-31T17:51:13.643Z,5.15
2023-01-31T17:53:49.515Z,5.88
2023-01-31T17:56:18.290Z,5.05
2023-01-31T17:58:45.606Z,4.50
2023-01-31T18:01:14.274Z,4.45
2023-01-31T18:03:42.226Z,3.67
2023-01-31T18:06:10.074Z,5.85
2023-01-31T18:08:37.713Z,5.28
2023-01-31T18:11:06.317Z,4.00
2023-01-31T18:13:33.729Z,4.50
2023-01-31T18:16:04.898Z,4.47
2023-01-31T18:18:32.572Z,4.47
2023-01-31T18:21:00.092Z,3.65
2023-01-31T18:23:27.393Z,4.88
2023-01-31T18:25:54.683Z,6.72
2023-01-31T18:28:21.957Z,4.32
2023-01-31T18:30:49.381Z,5.78
2023-01-31T18:33:16.917Z,4.25
2023-01-31T18:35:44.136Z,3.75
2023-01-31T18:38:13.436Z,5.32
2023-01-31T18:43:07.955Z,4.28
2023-01-31T18:45:35.249Z,6.70
2023-01-31T18:48:02.495Z,4.68
2023-01-31T18:50:31.059Z,5.00
2023-01-31T18:52:58.406Z,5.68
2023-01-31T18:55:25.800Z,4.95
2023-01-31T18:57:53.278Z,4.00
2023-01-31T19:00:23.558Z,3.78
2023-01-31T19:02:51.256Z,5.35
2023-01-31T19:05:19.151Z,4.35
2023-01-31T19:07:46.601Z,3.47
2023-01-31T19:10:14.232Z,4.75
2023-01-31T19:12:41.778Z,8.80
2023-01-31T19:15:10.025Z,4.57
2023-01-31T19:17:37.340Z,3.72
2023-01-31T19:20:05.419Z,4.40
2023-01-31T19:22:32.662Z,6.43
2023-01-31T19:24:59.953Z,4.60
2023-01-31T19:27:27.227Z,4.00
2023-01-31T19:29:54.554Z,4.63
2023-01-31T19:32:22.496Z,5.40
2023-01-31T19:34:49.740Z,4.20
2023-01-31T19:37:16.991Z,6.05
2023-01-31T19:39:44.265Z,4.72
2023-01-31T19:42:11.904Z,4.45
2023-01-31T19:44:39.120Z,4.45
2023-01-31T19:47:06.397Z,4.28
2023-01-31T19:49:33.626Z,3.63
2023-01-31T19:52:00.969Z,4.68
2023-01-31T19:54:28.292Z,5.97
2023-01-31T19:56:55.496Z,4.32
2023-01-31T19:59:22.804Z,3.95
2023-01-31T20:01:50.197Z,4.20
2023-01-31T20:04:17.529Z,3.90
2023-01-31T20:06:44.831Z,5.32
2023-01-31T20:09:19.883Z,3.70
2023-01-31T20:11:47.177Z,3.80
2023-01-31T20:14:14.447Z,4.15
2023-01-31T20:16:41.734Z,6.47
2023-01-31T20:19:09.160Z,4.20
2023-01-31T20:21:36.436Z,4.68
2023-01-31T20:24:03.703Z,4.00
2023-01-31T20:26:31.008Z,4.10
2023-01-31T20:29:00.712Z,5.50
2023-01-31T20:31:28.029Z,4.20
2023-01-31T20:33:55.585Z,4.03
2023-01-31T20:36:25.893Z,4.32
2023-01-31T20:38:53.351Z,4.25
2023-01-31T20:41:22.340Z,4.38
2023-01-31T20:43:50.526Z,3.83
2023-01-31T20:46:19.497Z,4.15
2023-01-31T20:48:46.820Z,3.70
2023-01-31T20:51:14.055Z,4.90
2023-01-31T20:53:41.456Z,3.30
2023-01-31T20:56:10.454Z,3.65
2023-01-31T20:58:38.713Z,4.85
2023-01-31T21:01:06.909Z,3.92
2023-01-31T21:03:35.095Z,3.78
2023-01-31T21:06:02.720Z,5.65
2023-01-31T21:08:32.046Z,6.13
2023-01-31T21:13:31.574Z,3.58
2023-01-31T21:15:59.996Z,4.32
2023-01-31T21:18:28.364Z,3.45
2023-01-31T21:20:55.911Z,3.53
2023-01-31T21:23:24.111Z,3.35
2023-01-31T21:25:51.392Z,3.25
2023-01-31T21:28:19.585Z,3.10
2023-01-31T21:30:57.210Z,5.60
2023-01-31T21:33:25.198Z,3.95
2023-01-31T21:35:52.489Z,4.60
2023-01-31T21:38:19.756Z,3.90
2023-01-31T21:40:46.968Z,5.30
2023-01-31T21:43:14.254Z,3.92
2023-01-31T21:45:41.547Z,5.07
2023-01-31T21:48:32.142Z,4.70
2023-01-31T21:51:03.388Z,4.68
2023-01-31T21:53:30.951Z,4.40
2023-01-31T21:56:05.002Z,3.80
2023-01-31T21:58:32.746Z,5.80
2023-01-31T22:01:04.413Z,3.85
2023-01-31T22:03:31.818Z,5.85
2023-01-31T22:06:09.049Z,3.65
2023-01-31T22:08:36.637Z,5.15
2023-01-31T22:11:08.355Z,3.67
2023-01-31T22:13:35.926Z,5.05
2023-01-31T22:16:10.279Z,6.20
2023-01-31T22:18:38.208Z,3.85
2023-01-31T22:21:06.932Z,5.13
2023-01-31T22:23:35.011Z,3.63
2023-01-31T22:26:05.102Z,4.10
2023-01-31T22:28:32.522Z,3.88
2023-01-31T22:31:00.616Z,3.83
2023-01-31T22:33:27.928Z,4.85
2023-01-31T22:35:55.268Z,5.25
2023-01-31T22:38:22.532Z,3.85
2023-01-31T22:40:49.877Z,5.05
2023-01-31T22:43:23.733Z,4.35
2023-01-31T22:45:52.693Z,3.78
2023-01-31T22:48:20.322Z,3.83
2023-01-31T22:50:54.785Z,4.47
2023-01-31T22:53:22.277Z,3.78
2023-01-31T22:55:49.564Z,5.03
2023-01-31T22:58:16.918Z,4.10
2023-01-31T23:00:44.249Z,2.80
2023-01-31T23:03:11.509Z,3.42
2023-01-31T23:05:44.991Z,5.35
2023-01-31T23:08:13.203Z,4.45
2023-01-31T23:10:41.289Z,4.18
2023-01-31T23:13:09.108Z,6.40
2023-01-31T23:15:36.748Z,4.20
2023-01-31T23:18:04.926Z,3.67
2023-01-31T23:20:32.927Z,5.80
2023-01-31T23:23:00.487Z,6.88
2023-01-31T23:25:29.595Z,4.38
2023-01-31T23:27:57.426Z,6.60
2023-01-31T23:30:25.177Z,4.18
2023-01-31T23:32:53.183Z,3.80
2023-01-31T23:35:20.474Z,5.97
2023-01-31T23:37:47.960Z,4.30
2023-01-31T23:40:15.660Z,4.10
2023-01-31T23:42:42.891Z,5.78
2023-01-31T23:45:10.367Z,4.45
2023-01-31T23:47:40.303Z,5.53
2023-01-31T23:50:07.727Z,5.70
2023-01-31T23:52:34.938Z,5.28
2023-01-31T23:55:02.171Z,6.38
2023-01-31T23:57:29.488Z,7.65
2023-01-31T23:59:56.688Z,5.40
